sensor_id;sensor_type;location;lat;lon;timestamp;temperature;humidity
8947;DHT22;4508;48.790;9.028;2022-09-09T00:02:08;15.20;99.90
8947;DHT22;4508;48.790;9.028;2022-09-09T00:04:38;15.30;99.90
8947;DHT22;4508;48.790;9.028;2022-09-09T00:07:10;15.40;99.90
8947;DHT22;4508;48.790;9.028;2022-09-09T00:09:44;15.30;99.90
8947;DHT22;4508;48.790;9.028;2022-09-09T00:12:16;15.30;99.90
8947;DHT22;4508;48.790;9.028;2022-09-09T00:14:50;15.20;99.90
8947;DHT22;4508;48.790;9.028;2022-09-09T00:17:25;15.30;99.90
8947;DHT22;4508;48.790;9.028;2022-09-09T00:19:56;15.30;99.90
8947;DHT22;4508;48.790;9.028;2022-09-09T00:22:28;15.30;99.90
8947;DHT22;4508;48.790;9.028;2022-09-09T00:25:01;15.30;99.90
8947;DHT22;4508;48.790;9.028;2022-09-09T00:27:33;15.40;99.90
8947;DHT22;4508;48.790;9.028;2022-09-09T00:30:14;15.50;99.90
8947;DHT22;4508;48.790;9.028;2022-09-09T00:32:44;15.30;99.90
8947;DHT22;4508;48.790;9.028;2022-09-09T00:35:17;15.30;99.90
8947;DHT22;4508;48.790;9.028;2022-09-09T00:37:46;15.40;99.90
8947;DHT22;4508;48.790;9.028;2022-09-09T00:40:23;15.40;99.90
8947;DHT22;4508;48.790;9.028;2022-09-09T00:42:59;15.40;99.90
8947;DHT22;4508;48.790;9.028;2022-09-09T00:48:33;15.50;99.90
8947;DHT22;4508;48.790;9.028;2022-09-09T00:51:08;15.40;99.90
8947;DHT22;4508;48.790;9.028;2022-09-09T00:53:52;15.40;99.90
8947;DHT22;4508;48.790;9.028;2022-09-09T00:56:27;15.50;99.90
8947;DHT22;4508;48.790;9.028;2022-09-09T00:59:00;15.60;99.90
8947;DHT22;4508;48.790;9.028;2022-09-09T01:01:32;15.50;99.90
8947;DHT22;4508;48.790;9.028;2022-09-09T01:04:05;15.60;99.90
8947;DHT22;4508;48.790;9.028;2022-09-09T01:06:36;15.60;99.90
8947;DHT22;4508;48.790;9.028;2022-09-09T01:09:17;15.60;99.90
8947;DHT22;4508;48.790;9.028;2022-09-09T01:11:55;15.70;99.90
8947;DHT22;4508;48.790;9.028;2022-09-09T01:14:38;15.70;99.90
8947;DHT22;4508;48.790;9.028;2022-09-09T01:17:12;15.80;99.90
8947;DHT22;4508;48.790;9.028;2022-09-09T01:19:48;15.60;99.90
8947;DHT22;4508;48.790;9.028;2022-09-09T01:22:25;15.50;99.90
8947;DHT22;4508;48.790;9.028;2022-09-09T01:25:15;15.50;99.90
8947;DHT22;4508;48.790;9.028;2022-09-09T01:27:47;15.40;99.90
8947;DHT22;4508;48.790;9.028;2022-09-09T01:30:16;15.60;99.90
8947;DHT22;4508;48.790;9.028;2022-09-09T01:32:46;15.40;99.90
8947;DHT22;4508;48.790;9.028;2022-09-09T01:35:29;15.50;99.90
8947;DHT22;4508;48.790;9.028;2022-09-09T01:37:58;15.40;99.90
8947;DHT22;4508;48.790;9.028;2022-09-09T01:40:25;15.30;99.90
8947;DHT22;4508;48.790;9.028;2022-09-09T01:42:54;15.40;99.90
8947;DHT22;4508;48.790;9.028;2022-09-09T01:45:21;15.30;99.90
8947;DHT22;4508;48.790;9.028;2022-09-09T01:47:48;15.40;99.90
8947;DHT22;4508;48.790;9.028;2022-09-09T01:50:16;15.40;99.90
8947;DHT22;4508;48.790;9.028;2022-09-09T01:52:44;15.40;99.90
8947;DHT22;4508;48.790;9.028;2022-09-09T01:55:12;15.20;99.90
8947;DHT22;4508;48.790;9.028;2022-09-09T01:57:42;15.10;99.90
8947;DHT22;4508;48.790;9.028;2022-09-09T02:00:14;15.10;99.90
8947;DHT22;4508;48.790;9.028;2022-09-09T02:02:46;15.10;99.90
8947;DHT22;4508;48.790;9.028;2022-09-09T02:05:25;15.10;99.90
8947;DHT22;4508;48.790;9.028;2022-09-09T02:08:00;15.20;99.90
8947;DHT22;4508;48.790;9.028;2022-09-09T02:10:30;15.10;99.90
8947;DHT22;4508;48.790;9.028;2022-09-09T02:13:20;15.30;99.90
8947;DHT22;4508;48.790;9.028;2022-09-09T02:15:52;15.10;99.90
8947;DHT22;4508;48.790;9.028;2022-09-09T02:18:26;15.20;99.90
8947;DHT22;4508;48.790;9.028;2022-09-09T02:20:53;15.10;99.90
8947;DHT22;4508;48.790;9.028;2022-09-09T02:23:20;15.20;99.90
8947;DHT22;4508;48.790;9.028;2022-09-09T02:25:48;15.10;99.90
8947;DHT22;4508;48.790;9.028;2022-09-09T02:28:17;15.20;99.90
8947;DHT22;4508;48.790;9.028;2022-09-09T02:30:49;15.00;99.90
8947;DHT22;4508;48.790;9.028;2022-09-09T02:33:22;15.10;99.90
8947;DHT22;4508;48.790;9.028;2022-09-09T02:35:50;15.10;99.90
8947;DHT22;4508;48.790;9.028;2022-09-09T02:38:17;15.00;99.90
8947;DHT22;4508;48.790;9.028;2022-09-09T02:40:45;14.90;99.90
8947;DHT22;4508;48.790;9.028;2022-09-09T02:43:14;14.90;99.90
8947;DHT22;4508;48.790;9.028;2022-09-09T02:45:45;14.70;99.90
8947;DHT22;4508;48.790;9.028;2022-09-09T02:48:20;14.60;99.90
8947;DHT22;4508;48.790;9.028;2022-09-09T02:50:55;14.50;99.90
8947;DHT22;4508;48.790;9.028;2022-09-09T02:53:29;14.60;99.90
8947;DHT22;4508;48.790;9.028;2022-09-09T02:56:02;14.60;99.90
8947;DHT22;4508;48.790;9.028;2022-09-09T02:58:30;14.60;99.90
8947;DHT22;4508;48.790;9.028;2022-09-09T03:00:58;14.50;99.90
8947;DHT22;4508;48.790;9.028;2022-09-09T03:03:27;14.50;99.90
8947;DHT22;4508;48.790;9.028;2022-09-09T03:05:55;14.50;99.90
8947;DHT22;4508;48.790;9.028;2022-09-09T03:08:22;14.50;99.90
8947;DHT22;4508;48.790;9.028;2022-09-09T03:10:49;14.40;99.90
8947;DHT22;4508;48.790;9.028;2022-09-09T03:13:16;14.50;99.90
8947;DHT22;4508;48.790;9.028;2022-09-09T03:15:44;14.40;99.90
8947;DHT22;4508;48.790;9.028;2022-09-09T03:18:11;14.30;99.90
8947;DHT22;4508;48.790;9.028;2022-09-09T03:20:39;14.50;99.90
8947;DHT22;4508;48.790;9.028;2022-09-09T03:23:07;14.60;99.90
8947;DHT22;4508;48.790;9.028;2022-09-09T03:25:34;14.60;99.90
8947;DHT22;4508;48.790;9.028;2022-09-09T03:28:01;14.50;99.90
8947;DHT22;4508;48.790;9.028;2022-09-09T03:30:28;14.40;99.90
8947;DHT22;4508;48.790;9.028;2022-09-09T03:32:55;14.50;99.90
8947;DHT22;4508;48.790;9.028;2022-09-09T03:35:22;14.30;99.90
8947;DHT22;4508;48.790;9.028;2022-09-09T03:37:50;14.40;99.90
8947;DHT22;4508;48.790;9.028;2022-09-09T03:40:16;14.40;99.90
8947;DHT22;4508;48.790;9.028;2022-09-09T03:42:44;14.40;99.90
8947;DHT22;4508;48.790;9.028;2022-09-09T03:45:11;14.40;99.90
8947;DHT22;4508;48.790;9.028;2022-09-09T03:47:38;14.50;99.90
8947;DHT22;4508;48.790;9.028;2022-09-09T03:50:05;14.50;99.90
8947;DHT22;4508;48.790;9.028;2022-09-09T03:52:35;14.40;99.90
8947;DHT22;4508;48.790;9.028;2022-09-09T03:55:03;14.40;99.90
8947;DHT22;4508;48.790;9.028;2022-09-09T03:57:30;14.50;99.90
8947;DHT22;4508;48.790;9.028;2022-09-09T04:00:00;14.60;99.90
8947;DHT22;4508;48.790;9.028;2022-09-09T04:02:27;14.70;99.90
8947;DHT22;4508;48.790;9.028;2022-09-09T04:04:54;14.70;99.90
8947;DHT22;4508;48.790;9.028;2022-09-09T04:07:20;14.70;99.90
8947;DHT22;4508;48.790;9.028;2022-09-09T04:09:47;14.80;99.90
8947;DHT22;4508;48.790;9.028;2022-09-09T04:12:15;14.80;99.90
8947;DHT22;4508;48.790;9.028;2022-09-09T04:14:43;14.80;99.90
8947;DHT22;4508;48.790;9.028;2022-09-09T04:17:10;14.80;99.90
8947;DHT22;4508;48.790;9.028;2022-09-09T04:19:36;14.80;99.90
8947;DHT22;4508;48.790;9.028;2022-09-09T04:22:03;14.70;99.90
8947;DHT22;4508;48.790;9.028;2022-09-09T04:24:30;14.80;99.90
8947;DHT22;4508;48.790;9.028;2022-09-09T04:26:56;14.90;99.90
8947;DHT22;4508;48.790;9.028;2022-09-09T04:29:24;14.80;99.90
8947;DHT22;4508;48.790;9.028;2022-09-09T04:31:51;14.80;99.90
8947;DHT22;4508;48.790;9.028;2022-09-09T04:34:18;14.80;99.90
8947;DHT22;4508;48.790;9.028;2022-09-09T04:36:45;14.90;99.90
8947;DHT22;4508;48.790;9.028;2022-09-09T04:39:11;14.90;99.90
8947;DHT22;4508;48.790;9.028;2022-09-09T04:41:38;14.80;99.90
8947;DHT22;4508;48.790;9.028;2022-09-09T04:44:05;14.80;99.90
8947;DHT22;4508;48.790;9.028;2022-09-09T04:46:33;14.70;99.90
8947;DHT22;4508;48.790;9.028;2022-09-09T04:49:00;14.60;99.90
8947;DHT22;4508;48.790;9.028;2022-09-09T04:51:27;14.70;99.90
8947;DHT22;4508;48.790;9.028;2022-09-09T04:53:56;14.60;99.90
8947;DHT22;4508;48.790;9.028;2022-09-09T04:56:23;14.60;99.90
8947;DHT22;4508;48.790;9.028;2022-09-09T04:58:52;14.70;99.90
8947;DHT22;4508;48.790;9.028;2022-09-09T05:01:21;14.80;99.90
8947;DHT22;4508;48.790;9.028;2022-09-09T05:03:50;14.60;99.90
8947;DHT22;4508;48.790;9.028;2022-09-09T05:06:19;14.60;99.90
8947;DHT22;4508;48.790;9.028;2022-09-09T05:08:46;14.70;99.90
8947;DHT22;4508;48.790;9.028;2022-09-09T05:11:15;14.70;99.90
8947;DHT22;4508;48.790;9.028;2022-09-09T05:13:42;14.70;99.90
8947;DHT22;4508;48.790;9.028;2022-09-09T05:16:09;14.70;99.90
8947;DHT22;4508;48.790;9.028;2022-09-09T05:18:37;14.90;99.90
8947;DHT22;4508;48.790;9.028;2022-09-09T05:21:05;14.80;99.90
8947;DHT22;4508;48.790;9.028;2022-09-09T05:23:32;14.90;99.90
8947;DHT22;4508;48.790;9.028;2022-09-09T05:25:59;14.90;99.90
8947;DHT22;4508;48.790;9.028;2022-09-09T05:28:27;14.90;99.90
8947;DHT22;4508;48.790;9.028;2022-09-09T05:30:58;15.10;99.90
8947;DHT22;4508;48.790;9.028;2022-09-09T05:33:25;15.30;99.90
8947;DHT22;4508;48.790;9.028;2022-09-09T05:35:57;15.20;99.90
8947;DHT22;4508;48.790;9.028;2022-09-09T05:38:25;15.30;99.90
8947;DHT22;4508;48.790;9.028;2022-09-09T05:40:52;15.20;99.90
8947;DHT22;4508;48.790;9.028;2022-09-09T05:43:19;15.30;99.90
8947;DHT22;4508;48.790;9.028;2022-09-09T05:45:46;15.20;99.90
8947;DHT22;4508;48.790;9.028;2022-09-09T05:48:13;15.30;99.90
8947;DHT22;4508;48.790;9.028;2022-09-09T05:50:40;15.30;99.90
8947;DHT22;4508;48.790;9.028;2022-09-09T05:53:08;15.30;99.90
8947;DHT22;4508;48.790;9.028;2022-09-09T05:55:36;15.40;99.90
8947;DHT22;4508;48.790;9.028;2022-09-09T05:58:03;15.50;99.90
8947;DHT22;4508;48.790;9.028;2022-09-09T06:00:29;15.40;99.90
8947;DHT22;4508;48.790;9.028;2022-09-09T06:02:57;15.40;99.90
8947;DHT22;4508;48.790;9.028;2022-09-09T06:05:24;15.50;99.90
8947;DHT22;4508;48.790;9.028;2022-09-09T06:07:52;15.50;99.90
8947;DHT22;4508;48.790;9.028;2022-09-09T06:10:19;15.60;99.90
8947;DHT22;4508;48.790;9.028;2022-09-09T06:12:47;15.60;99.90
8947;DHT22;4508;48.790;9.028;2022-09-09T06:15:14;15.60;99.90
8947;DHT22;4508;48.790;9.028;2022-09-09T06:17:41;15.60;99.90
8947;DHT22;4508;48.790;9.028;2022-09-09T06:20:08;15.60;99.90
8947;DHT22;4508;48.790;9.028;2022-09-09T06:22:35;15.50;99.90
8947;DHT22;4508;48.790;9.028;2022-09-09T06:25:02;15.70;99.90
8947;DHT22;4508;48.790;9.028;2022-09-09T06:27:29;15.70;99.90
8947;DHT22;4508;48.790;9.028;2022-09-09T06:29:57;15.60;99.90
8947;DHT22;4508;48.790;9.028;2022-09-09T06:32:24;15.50;99.90
8947;DHT22;4508;48.790;9.028;2022-09-09T06:34:52;15.60;99.90
8947;DHT22;4508;48.790;9.028;2022-09-09T06:37:19;15.60;99.90
8947;DHT22;4508;48.790;9.028;2022-09-09T06:39:46;15.60;99.90
8947;DHT22;4508;48.790;9.028;2022-09-09T06:42:13;15.80;99.90
8947;DHT22;4508;48.790;9.028;2022-09-09T06:44:41;15.80;99.90
8947;DHT22;4508;48.790;9.028;2022-09-09T06:47:09;16.00;99.90
8947;DHT22;4508;48.790;9.028;2022-09-09T06:49:36;16.00;99.90
8947;DHT22;4508;48.790;9.028;2022-09-09T06:52:03;16.10;99.90
8947;DHT22;4508;48.790;9.028;2022-09-09T06:54:29;16.10;99.90
8947;DHT22;4508;48.790;9.028;2022-09-09T06:56:56;16.10;99.90
8947;DHT22;4508;48.790;9.028;2022-09-09T06:59:23;16.30;99.90
8947;DHT22;4508;48.790;9.028;2022-09-09T07:01:51;16.40;99.90
8947;DHT22;4508;48.790;9.028;2022-09-09T07:04:21;16.60;99.90
8947;DHT22;4508;48.790;9.028;2022-09-09T07:06:47;16.60;99.90
8947;DHT22;4508;48.790;9.028;2022-09-09T07:09:15;16.60;99.90
8947;DHT22;4508;48.790;9.028;2022-09-09T07:11:44;16.80;99.90
8947;DHT22;4508;48.790;9.028;2022-09-09T07:14:11;17.50;99.90
8947;DHT22;4508;48.790;9.028;2022-09-09T07:16:39;19.30;99.90
8947;DHT22;4508;48.790;9.028;2022-09-09T07:19:07;20.50;99.90
8947;DHT22;4508;48.790;9.028;2022-09-09T07:21:35;19.50;99.90
8947;DHT22;4508;48.790;9.028;2022-09-09T07:24:02;19.20;99.90
8947;DHT22;4508;48.790;9.028;2022-09-09T07:26:33;19.00;99.90
8947;DHT22;4508;48.790;9.028;2022-09-09T07:29:00;19.40;99.90
8947;DHT22;4508;48.790;9.028;2022-09-09T07:31:28;20.30;99.90
8947;DHT22;4508;48.790;9.028;2022-09-09T07:33:56;20.20;99.90
8947;DHT22;4508;48.790;9.028;2022-09-09T07:36:24;20.00;99.90
8947;DHT22;4508;48.790;9.028;2022-09-09T07:38:54;19.40;99.90
8947;DHT22;4508;48.790;9.028;2022-09-09T07:41:24;19.60;99.90
8947;DHT22;4508;48.790;9.028;2022-09-09T07:43:52;19.20;99.90
8947;DHT22;4508;48.790;9.028;2022-09-09T07:46:20;21.10;99.90
8947;DHT22;4508;48.790;9.028;2022-09-09T07:48:48;23.80;99.90
8947;DHT22;4508;48.790;9.028;2022-09-09T07:51:18;25.10;99.90
8947;DHT22;4508;48.790;9.028;2022-09-09T07:53:46;25.00;99.90
8947;DHT22;4508;48.790;9.028;2022-09-09T07:56:16;25.10;99.90
8947;DHT22;4508;48.790;9.028;2022-09-09T07:58:45;24.20;99.90
8947;DHT22;4508;48.790;9.028;2022-09-09T08:01:14;23.70;99.90
8947;DHT22;4508;48.790;9.028;2022-09-09T08:03:41;23.90;99.90
8947;DHT22;4508;48.790;9.028;2022-09-09T08:06:10;25.80;99.90
8947;DHT22;4508;48.790;9.028;2022-09-09T08:08:38;25.90;99.90
8947;DHT22;4508;48.790;9.028;2022-09-09T08:11:09;26.40;99.90
8947;DHT22;4508;48.790;9.028;2022-09-09T08:13:38;26.70;99.90
8947;DHT22;4508;48.790;9.028;2022-09-09T08:16:07;25.70;99.90
8947;DHT22;4508;48.790;9.028;2022-09-09T08:18:34;26.70;99.90
8947;DHT22;4508;48.790;9.028;2022-09-09T08:21:08;26.70;99.90
8947;DHT22;4508;48.790;9.028;2022-09-09T08:23:37;26.50;99.90
8947;DHT22;4508;48.790;9.028;2022-09-09T08:26:05;26.10;99.90
8947;DHT22;4508;48.790;9.028;2022-09-09T08:28:34;25.10;99.90
8947;DHT22;4508;48.790;9.028;2022-09-09T08:31:11;27.00;99.90
8947;DHT22;4508;48.790;9.028;2022-09-09T08:33:38;26.90;99.90
8947;DHT22;4508;48.790;9.028;2022-09-09T08:36:08;26.20;99.90
8947;DHT22;4508;48.790;9.028;2022-09-09T08:38:35;26.40;99.90
8947;DHT22;4508;48.790;9.028;2022-09-09T08:41:28;26.00;99.90
8947;DHT22;4508;48.790;9.028;2022-09-09T08:44:02;25.80;99.90
8947;DHT22;4508;48.790;9.028;2022-09-09T08:46:40;27.00;99.90
8947;DHT22;4508;48.790;9.028;2022-09-09T08:49:20;26.40;99.90
8947;DHT22;4508;48.790;9.028;2022-09-09T08:51:49;28.80;99.90
8947;DHT22;4508;48.790;9.028;2022-09-09T08:54:17;28.60;99.90
8947;DHT22;4508;48.790;9.028;2022-09-09T08:56:44;28.60;99.90
8947;DHT22;4508;48.790;9.028;2022-09-09T08:59:17;27.80;99.90
8947;DHT22;4508;48.790;9.028;2022-09-09T09:01:59;25.40;99.90
8947;DHT22;4508;48.790;9.028;2022-09-09T09:04:49;24.60;99.90
8947;DHT22;4508;48.790;9.028;2022-09-09T09:07:28;23.50;99.90
8947;DHT22;4508;48.790;9.028;2022-09-09T09:10:02;23.10;99.90
8947;DHT22;4508;48.790;9.028;2022-09-09T09:12:37;22.50;99.90
8947;DHT22;4508;48.790;9.028;2022-09-09T09:15:14;21.50;99.90
8947;DHT22;4508;48.790;9.028;2022-09-09T09:17:44;21.60;99.90
8947;DHT22;4508;48.790;9.028;2022-09-09T09:20:12;21.10;99.90
8947;DHT22;4508;48.790;9.028;2022-09-09T09:22:46;21.30;99.90
8947;DHT22;4508;48.790;9.028;2022-09-09T09:25:17;22.10;99.90
8947;DHT22;4508;48.790;9.028;2022-09-09T09:27:49;23.20;99.90
8947;DHT22;4508;48.790;9.028;2022-09-09T09:30:19;22.90;99.90
8947;DHT22;4508;48.790;9.028;2022-09-09T09:32:52;22.90;99.90
8947;DHT22;4508;48.790;9.028;2022-09-09T09:35:20;24.00;99.90
8947;DHT22;4508;48.790;9.028;2022-09-09T09:37:47;23.70;99.90
8947;DHT22;4508;48.790;9.028;2022-09-09T09:40:16;24.70;99.90
8947;DHT22;4508;48.790;9.028;2022-09-09T09:42:52;24.90;99.90
8947;DHT22;4508;48.790;9.028;2022-09-09T09:45:27;23.90;99.90
8947;DHT22;4508;48.790;9.028;2022-09-09T09:48:00;25.50;99.90
8947;DHT22;4508;48.790;9.028;2022-09-09T09:50:28;24.00;99.90
8947;DHT22;4508;48.790;9.028;2022-09-09T09:52:56;25.60;99.90
8947;DHT22;4508;48.790;9.028;2022-09-09T09:55:24;25.70;99.90
8947;DHT22;4508;48.790;9.028;2022-09-09T09:57:52;26.00;99.90
8947;DHT22;4508;48.790;9.028;2022-09-09T10:00:21;25.30;99.90
8947;DHT22;4508;48.790;9.028;2022-09-09T10:02:49;25.90;99.90
8947;DHT22;4508;48.790;9.028;2022-09-09T10:05:24;25.60;99.90
8947;DHT22;4508;48.790;9.028;2022-09-09T10:08:02;25.80;99.90
8947;DHT22;4508;48.790;9.028;2022-09-09T10:10:42;25.90;99.90
8947;DHT22;4508;48.790;9.028;2022-09-09T10:13:16;26.30;99.90
8947;DHT22;4508;48.790;9.028;2022-09-09T10:15:57;26.10;99.90
8947;DHT22;4508;48.790;9.028;2022-09-09T10:18:36;25.90;99.90
8947;DHT22;4508;48.790;9.028;2022-09-09T10:21:17;26.00;99.90
8947;DHT22;4508;48.790;9.028;2022-09-09T10:24:02;26.40;99.90
8947;DHT22;4508;48.790;9.028;2022-09-09T10:26:40;26.00;99.90
8947;DHT22;4508;48.790;9.028;2022-09-09T10:29:40;26.40;99.90
8947;DHT22;4508;48.790;9.028;2022-09-09T10:32:33;26.50;99.90
8947;DHT22;4508;48.790;9.028;2022-09-09T10:35:08;27.30;99.90
8947;DHT22;4508;48.790;9.028;2022-09-09T10:37:45;27.00;99.90
8947;DHT22;4508;48.790;9.028;2022-09-09T10:40:28;26.70;99.90
8947;DHT22;4508;48.790;9.028;2022-09-09T10:43:04;27.50;99.90
8947;DHT22;4508;48.790;9.028;2022-09-09T10:45:44;27.40;99.90
8947;DHT22;4508;48.790;9.028;2022-09-09T10:51:27;26.60;99.90
8947;DHT22;4508;48.790;9.028;2022-09-09T10:54:17;25.80;99.90
8947;DHT22;4508;48.790;9.028;2022-09-09T10:56:51;24.50;99.90
8947;DHT22;4508;48.790;9.028;2022-09-09T10:59:25;23.40;99.90
8947;DHT22;4508;48.790;9.028;2022-09-09T11:01:58;22.60;99.90
8947;DHT22;4508;48.790;9.028;2022-09-09T11:04:30;22.20;99.90
8947;DHT22;4508;48.790;9.028;2022-09-09T11:07:04;21.60;99.90
8947;DHT22;4508;48.790;9.028;2022-09-09T11:09:38;21.00;99.90
8947;DHT22;4508;48.790;9.028;2022-09-09T11:12:13;20.80;99.90
8947;DHT22;4508;48.790;9.028;2022-09-09T11:14:43;21.20;99.90
8947;DHT22;4508;48.790;9.028;2022-09-09T11:17:12;21.50;99.90
8947;DHT22;4508;48.790;9.028;2022-09-09T11:19:43;21.30;99.90
8947;DHT22;4508;48.790;9.028;2022-09-09T11:22:19;20.80;99.90
8947;DHT22;4508;48.790;9.028;2022-09-09T11:24:53;20.20;99.90
8947;DHT22;4508;48.790;9.028;2022-09-09T11:27:29;19.80;99.90
8947;DHT22;4508;48.790;9.028;2022-09-09T11:30:18;19.80;99.90
8947;DHT22;4508;48.790;9.028;2022-09-09T11:32:58;19.50;99.90
8947;DHT22;4508;48.790;9.028;2022-09-09T11:35:39;19.30;99.90
8947;DHT22;4508;48.790;9.028;2022-09-09T11:38:19;19.50;99.90
8947;DHT22;4508;48.790;9.028;2022-09-09T11:40:55;19.30;99.90
8947;DHT22;4508;48.790;9.028;2022-09-09T11:43:27;19.20;99.90
8947;DHT22;4508;48.790;9.028;2022-09-09T11:45:56;19.20;99.90
8947;DHT22;4508;48.790;9.028;2022-09-09T11:48:28;19.20;99.90
8947;DHT22;4508;48.790;9.028;2022-09-09T11:51:01;19.30;99.90
8947;DHT22;4508;48.790;9.028;2022-09-09T11:53:28;19.40;99.90
8947;DHT22;4508;48.790;9.028;2022-09-09T11:56:05;20.30;99.90
8947;DHT22;4508;48.790;9.028;2022-09-09T11:58:37;21.40;99.90
8947;DHT22;4508;48.790;9.028;2022-09-09T12:04:33;22.40;99.90
8947;DHT22;4508;48.790;9.028;2022-09-09T12:07:04;23.50;99.90
8947;DHT22;4508;48.790;9.028;2022-09-09T12:09:47;23.50;99.90
8947;DHT22;4508;48.790;9.028;2022-09-09T12:12:27;23.70;99.90
8947;DHT22;4508;48.790;9.028;2022-09-09T12:15:00;23.50;99.90
8947;DHT22;4508;48.790;9.028;2022-09-09T12:17:29;23.00;99.90
8947;DHT22;4508;48.790;9.028;2022-09-09T12:20:12;22.90;99.90
8947;DHT22;4508;48.790;9.028;2022-09-09T12:25:57;22.00;99.90
8947;DHT22;4508;48.790;9.028;2022-09-09T12:28:44;23.10;99.90
8947;DHT22;4508;48.790;9.028;2022-09-09T12:31:17;23.60;99.90
8947;DHT22;4508;48.790;9.028;2022-09-09T12:33:47;23.00;99.90
8947;DHT22;4508;48.790;9.028;2022-09-09T12:36:16;23.70;99.90
8947;DHT22;4508;48.790;9.028;2022-09-09T12:38:45;24.30;99.90
8947;DHT22;4508;48.790;9.028;2022-09-09T12:41:20;24.80;99.90
8947;DHT22;4508;48.790;9.028;2022-09-09T12:43:49;25.10;99.90
8947;DHT22;4508;48.790;9.028;2022-09-09T12:46:27;25.10;99.90
8947;DHT22;4508;48.790;9.028;2022-09-09T12:48:57;25.50;99.90
8947;DHT22;4508;48.790;9.028;2022-09-09T12:51:26;24.60;99.90
8947;DHT22;4508;48.790;9.028;2022-09-09T12:53:55;24.90;99.90
8947;DHT22;4508;48.790;9.028;2022-09-09T12:56:23;24.40;99.90
8947;DHT22;4508;48.790;9.028;2022-09-09T12:58:54;24.30;99.90
8947;DHT22;4508;48.790;9.028;2022-09-09T13:01:23;24.30;99.90
8947;DHT22;4508;48.790;9.028;2022-09-09T13:03:51;23.90;99.90
8947;DHT22;4508;48.790;9.028;2022-09-09T13:06:21;23.30;99.90
8947;DHT22;4508;48.790;9.028;2022-09-09T13:08:49;23.20;99.90
8947;DHT22;4508;48.790;9.028;2022-09-09T13:11:18;24.60;99.90
8947;DHT22;4508;48.790;9.028;2022-09-09T13:13:51;24.60;99.90
8947;DHT22;4508;48.790;9.028;2022-09-09T13:16:22;25.60;99.90
8947;DHT22;4508;48.790;9.028;2022-09-09T13:18:49;25.90;99.90
8947;DHT22;4508;48.790;9.028;2022-09-09T13:21:16;24.70;99.90
8947;DHT22;4508;48.790;9.028;2022-09-09T13:23:48;25.40;99.90
8947;DHT22;4508;48.790;9.028;2022-09-09T13:26:22;26.10;99.90
8947;DHT22;4508;48.790;9.028;2022-09-09T13:28:50;25.60;99.90
8947;DHT22;4508;48.790;9.028;2022-09-09T13:31:24;25.20;99.90
8947;DHT22;4508;48.790;9.028;2022-09-09T13:33:53;24.30;99.90
8947;DHT22;4508;48.790;9.028;2022-09-09T13:36:28;24.10;99.90
8947;DHT22;4508;48.790;9.028;2022-09-09T13:38:57;24.70;99.90
8947;DHT22;4508;48.790;9.028;2022-09-09T13:41:27;24.30;99.90
8947;DHT22;4508;48.790;9.028;2022-09-09T13:43:55;24.60;99.90
8947;DHT22;4508;48.790;9.028;2022-09-09T13:46:33;24.50;99.90
8947;DHT22;4508;48.790;9.028;2022-09-09T13:49:02;24.40;99.90
8947;DHT22;4508;48.790;9.028;2022-09-09T13:51:36;24.40;99.90
8947;DHT22;4508;48.790;9.028;2022-09-09T13:54:04;24.60;99.90
8947;DHT22;4508;48.790;9.028;2022-09-09T13:56:31;24.30;99.90
8947;DHT22;4508;48.790;9.028;2022-09-09T13:58:58;24.00;99.90
8947;DHT22;4508;48.790;9.028;2022-09-09T14:01:26;24.10;99.90
8947;DHT22;4508;48.790;9.028;2022-09-09T14:03:53;24.00;99.90
8947;DHT22;4508;48.790;9.028;2022-09-09T14:06:20;24.60;99.90
8947;DHT22;4508;48.790;9.028;2022-09-09T14:08:49;24.80;99.90
8947;DHT22;4508;48.790;9.028;2022-09-09T14:11:16;24.20;99.90
8947;DHT22;4508;48.790;9.028;2022-09-09T14:13:43;23.90;99.90
8947;DHT22;4508;48.790;9.028;2022-09-09T14:16:10;24.10;99.90
8947;DHT22;4508;48.790;9.028;2022-09-09T14:18:38;24.80;99.90
8947;DHT22;4508;48.790;9.028;2022-09-09T14:21:06;25.40;99.90
8947;DHT22;4508;48.790;9.028;2022-09-09T14:23:34;24.80;99.90
8947;DHT22;4508;48.790;9.028;2022-09-09T14:26:01;24.10;99.90
8947;DHT22;4508;48.790;9.028;2022-09-09T14:28:28;23.90;99.90
8947;DHT22;4508;48.790;9.028;2022-09-09T14:30:55;23.70;99.90
8947;DHT22;4508;48.790;9.028;2022-09-09T14:33:22;23.40;99.90
8947;DHT22;4508;48.790;9.028;2022-09-09T14:35:55;23.70;99.90
8947;DHT22;4508;48.790;9.028;2022-09-09T14:38:22;24.00;99.90
8947;DHT22;4508;48.790;9.028;2022-09-09T14:40:49;24.10;99.90
8947;DHT22;4508;48.790;9.028;2022-09-09T14:43:15;24.10;99.90
8947;DHT22;4508;48.790;9.028;2022-09-09T14:45:42;24.10;99.90
8947;DHT22;4508;48.790;9.028;2022-09-09T14:48:09;23.70;99.90
8947;DHT22;4508;48.790;9.028;2022-09-09T14:50:36;23.50;99.90
8947;DHT22;4508;48.790;9.028;2022-09-09T14:53:07;23.10;99.90
8947;DHT22;4508;48.790;9.028;2022-09-09T14:55:34;22.80;99.90
8947;DHT22;4508;48.790;9.028;2022-09-09T14:58:00;22.70;99.90
8947;DHT22;4508;48.790;9.028;2022-09-09T15:00:27;22.60;99.90
8947;DHT22;4508;48.790;9.028;2022-09-09T15:02:54;22.40;99.90
8947;DHT22;4508;48.790;9.028;2022-09-09T15:05:22;22.30;99.90
8947;DHT22;4508;48.790;9.028;2022-09-09T15:07:49;22.20;99.90
8947;DHT22;4508;48.790;9.028;2022-09-09T15:10:17;22.30;99.90
8947;DHT22;4508;48.790;9.028;2022-09-09T15:12:44;22.10;99.90
8947;DHT22;4508;48.790;9.028;2022-09-09T15:15:11;22.10;99.90
8947;DHT22;4508;48.790;9.028;2022-09-09T15:17:38;22.10;99.90
8947;DHT22;4508;48.790;9.028;2022-09-09T15:20:06;22.00;99.90
8947;DHT22;4508;48.790;9.028;2022-09-09T15:22:33;21.90;99.90
8947;DHT22;4508;48.790;9.028;2022-09-09T15:25:02;21.90;99.90
8947;DHT22;4508;48.790;9.028;2022-09-09T15:27:30;22.00;99.90
8947;DHT22;4508;48.790;9.028;2022-09-09T15:29:57;21.80;99.90
8947;DHT22;4508;48.790;9.028;2022-09-09T15:32:24;22.00;99.90
8947;DHT22;4508;48.790;9.028;2022-09-09T15:34:51;22.10;99.90
8947;DHT22;4508;48.790;9.028;2022-09-09T15:37:18;22.10;99.90
8947;DHT22;4508;48.790;9.028;2022-09-09T15:39:45;21.50;99.90
8947;DHT22;4508;48.790;9.028;2022-09-09T15:42:12;21.30;99.90
8947;DHT22;4508;48.790;9.028;2022-09-09T15:44:41;21.30;99.90
8947;DHT22;4508;48.790;9.028;2022-09-09T15:47:10;21.10;99.90
8947;DHT22;4508;48.790;9.028;2022-09-09T15:49:38;21.00;99.90
8947;DHT22;4508;48.790;9.028;2022-09-09T15:52:05;20.90;99.90
8947;DHT22;4508;48.790;9.028;2022-09-09T15:54:33;20.80;99.90
8947;DHT22;4508;48.790;9.028;2022-09-09T15:57:02;20.80;99.90
8947;DHT22;4508;48.790;9.028;2022-09-09T15:59:30;20.70;99.90
8947;DHT22;4508;48.790;9.028;2022-09-09T16:02:00;20.70;99.90
8947;DHT22;4508;48.790;9.028;2022-09-09T16:04:28;20.70;99.90
8947;DHT22;4508;48.790;9.028;2022-09-09T16:06:56;20.60;99.90
8947;DHT22;4508;48.790;9.028;2022-09-09T16:09:24;20.60;99.90
8947;DHT22;4508;48.790;9.028;2022-09-09T16:11:51;20.40;99.90
8947;DHT22;4508;48.790;9.028;2022-09-09T16:14:18;20.30;99.90
8947;DHT22;4508;48.790;9.028;2022-09-09T16:16:45;20.20;99.90
8947;DHT22;4508;48.790;9.028;2022-09-09T16:19:13;20.10;99.90
8947;DHT22;4508;48.790;9.028;2022-09-09T16:21:41;20.10;99.90
8947;DHT22;4508;48.790;9.028;2022-09-09T16:24:10;19.60;99.90
8947;DHT22;4508;48.790;9.028;2022-09-09T16:26:39;19.40;99.90
8947;DHT22;4508;48.790;9.028;2022-09-09T16:29:06;19.10;99.90
8947;DHT22;4508;48.790;9.028;2022-09-09T16:31:34;18.80;99.90
8947;DHT22;4508;48.790;9.028;2022-09-09T16:34:00;18.80;99.90
8947;DHT22;4508;48.790;9.028;2022-09-09T16:36:34;18.80;99.90